createdAt,value
2016-02-20T00:00:19.792Z,0
2016-02-20T00:01:19.795Z,0
2016-02-20T00:02:19.814Z,0
2016-02-20T00:03:19.831Z,0
2016-02-20T00:04:19.866Z,0
2016-02-20T00:05:19.887Z,0
2016-02-20T00:06:19.884Z,0
2016-02-20T00:07:19.903Z,0
2016-02-20T00:08:19.921Z,0
2016-02-20T00:09:19.939Z,0
2016-02-20T00:10:19.942Z,0
2016-02-20T00:11:19.977Z,0
2016-02-20T00:12:19.979Z,0
2016-02-20T00:13:20.028Z,0
2016-02-20T00:14:20.016Z,0
2016-02-20T00:15:20.049Z,0
2016-02-20T00:16:20.036Z,0
2016-02-20T00:17:20.071Z,0
2016-02-20T00:18:20.074Z,0
2016-02-20T00:19:20.091Z,0
2016-02-20T00:20:20.110Z,0
2016-02-20T00:21:20.160Z,0
2016-02-20T00:22:20.147Z,0
2016-02-20T00:23:20.149Z,0
2016-02-20T00:24:20.183Z,0
2016-02-20T00:25:20.185Z,0
2016-02-20T00:26:20.235Z,0
2016-02-20T00:27:20.237Z,0
2016-02-20T00:28:20.241Z,0
2016-02-20T00:29:20.275Z,0
2016-02-20T00:30:20.278Z,0
2016-02-20T00:31:20.129Z,0
2016-02-20T00:32:20.320Z,0
2016-02-20T00:33:20.322Z,0
2016-02-20T00:34:20.340Z,0
2016-02-20T00:35:20.359Z,0
2016-02-20T00:36:20.361Z,0
2016-02-20T00:37:20.379Z,4
2016-02-20T00:38:20.413Z,4
2016-02-20T00:39:20.416Z,0
2016-02-20T00:40:20.419Z,0
2016-02-20T00:41:20.436Z,0
2016-02-20T00:42:20.471Z,0
2016-02-20T00:43:20.474Z,0
2016-02-20T00:44:20.508Z,0
2016-02-20T00:45:20.526Z,0
2016-02-20T00:46:20.529Z,0
2016-02-20T00:47:20.546Z,0
2016-02-20T00:48:20.550Z,0
2016-02-20T00:49:20.583Z,0
2016-02-20T00:50:20.585Z,0
2016-02-20T00:51:20.620Z,0
2016-02-20T00:52:20.623Z,0
2016-02-20T00:53:20.656Z,0
2016-02-20T00:54:20.659Z,0
2016-02-20T00:55:20.679Z,0
2016-02-20T00:56:20.696Z,0
2016-02-20T00:57:20.715Z,0
2016-02-20T00:58:20.732Z,0
2016-02-20T00:59:20.798Z,0
2016-02-20T01:00:20.753Z,0
2016-02-20T01:01:20.459Z,0
2016-02-20T01:02:20.775Z,0
2016-02-20T01:03:20.792Z,0
2016-02-20T01:04:20.828Z,0
2016-02-20T01:05:20.830Z,0
2016-02-20T01:06:20.847Z,0
2016-02-20T01:07:20.851Z,0
2016-02-20T01:08:20.900Z,0
2016-02-20T01:09:20.886Z,0
2016-02-20T01:10:20.906Z,0
2016-02-20T01:11:20.924Z,0
2016-02-20T01:12:20.958Z,0
2016-02-20T01:13:20.945Z,0
2016-02-20T01:14:20.995Z,0
2016-02-20T01:15:20.982Z,0
2016-02-20T01:16:20.999Z,0
2016-02-20T01:17:21.018Z,0
2016-02-20T01:18:21.037Z,0
2016-02-20T01:19:21.055Z,0
2016-02-20T01:20:21.057Z,0
2016-02-20T01:21:21.065Z,0
2016-02-20T01:22:21.099Z,0
2016-02-20T01:23:21.102Z,0
2016-02-20T01:24:21.121Z,0
2016-02-20T01:25:21.138Z,0
2016-02-20T01:26:21.172Z,0
2016-02-20T01:27:21.175Z,0
2016-02-20T01:28:21.178Z,0
2016-02-20T01:29:21.212Z,0
2016-02-20T01:30:21.214Z,0
2016-02-20T01:31:21.217Z,0
2016-02-20T01:32:21.236Z,0
2016-02-20T01:33:21.269Z,0
2016-02-20T01:34:21.272Z,0
2016-02-20T01:35:21.289Z,0
2016-02-20T01:36:21.152Z,0
2016-02-20T01:37:21.342Z,0
2016-02-20T01:38:21.330Z,0
2016-02-20T01:39:21.380Z,0
2016-02-20T01:40:21.367Z,0
2016-02-20T01:41:21.385Z,0
2016-02-20T01:42:21.403Z,0
2016-02-20T01:43:21.421Z,0
2016-02-20T01:44:21.299Z,0
2016-02-20T01:45:21.457Z,0
2016-02-20T01:46:21.460Z,0
2016-02-20T01:47:21.479Z,0
2016-02-20T01:48:21.497Z,0
2016-02-20T01:49:21.515Z,0
2016-02-20T01:50:21.518Z,0
2016-02-20T01:51:21.568Z,0
2016-02-20T01:52:21.554Z,0
2016-02-20T01:53:21.588Z,0
2016-02-20T01:54:21.435Z,0
2016-02-20T01:55:21.594Z,0
2016-02-20T01:56:21.628Z,0
2016-02-20T01:57:21.631Z,0
2016-02-20T01:58:21.649Z,0
2016-02-20T01:59:21.683Z,0
2016-02-20T02:00:21.686Z,0
2016-02-20T02:01:21.688Z,0
2016-02-20T02:02:21.723Z,0
2016-02-20T02:03:21.772Z,0
2016-02-20T02:04:21.759Z,0
2016-02-20T02:05:21.775Z,0
2016-02-20T02:06:21.778Z,0
2016-02-20T02:07:21.795Z,0
2016-02-20T02:08:21.797Z,0
2016-02-20T02:09:21.816Z,0
2016-02-20T02:10:21.944Z,0
2016-02-20T02:11:21.853Z,0
2016-02-20T02:12:21.919Z,0
2016-02-20T02:13:21.936Z,0
2016-02-20T02:14:21.939Z,0
2016-02-20T02:15:21.911Z,0
2016-02-20T02:16:21.929Z,0
2016-02-20T02:17:21.932Z,0
2016-02-20T02:18:22.012Z,0
2016-02-20T02:19:21.984Z,0
2016-02-20T02:20:22.033Z,0
2016-02-20T02:21:22.068Z,0
2016-02-20T02:22:22.038Z,0
2016-02-20T02:23:22.041Z,0
2016-02-20T02:24:22.060Z,0
2016-02-20T02:25:21.937Z,0
2016-02-20T02:26:22.128Z,0
2016-02-20T02:27:22.131Z,0
2016-02-20T02:28:22.226Z,0
2016-02-20T02:29:22.167Z,0
2016-02-20T02:30:22.170Z,0
2016-02-20T02:31:22.203Z,0
2016-02-20T02:32:22.284Z,0
2016-02-20T02:33:22.193Z,0
2016-02-20T02:34:22.212Z,0
2016-02-20T02:35:22.230Z,0
2016-02-20T02:36:22.248Z,0
2016-02-20T02:37:22.250Z,0
2016-02-20T02:38:22.269Z,0
2016-02-20T02:39:22.288Z,0
2016-02-20T02:40:22.290Z,0
2016-02-20T02:41:22.636Z,0
2016-02-20T02:42:22.561Z,0
2016-02-20T02:43:22.549Z,0
2016-02-20T02:44:22.458Z,0
2016-02-20T02:45:22.475Z,0
2016-02-20T02:46:22.447Z,0
2016-02-20T02:47:22.402Z,0
2016-02-20T02:48:22.437Z,0
2016-02-20T02:49:22.455Z,0
2016-02-20T02:50:22.457Z,0
2016-02-20T02:51:22.476Z,0
2016-02-20T02:52:22.479Z,0
2016-02-20T02:53:22.496Z,0
2016-02-20T02:54:22.516Z,0
2016-02-20T02:55:22.534Z,0
2016-02-20T02:56:22.552Z,0
2016-02-20T02:57:22.571Z,0
2016-02-20T02:58:22.573Z,0
2016-02-20T02:59:22.638Z,0
2016-02-20T03:00:22.610Z,0
2016-02-20T03:01:22.629Z,0
2016-02-20T03:02:22.678Z,0
2016-02-20T03:03:22.680Z,0
2016-02-20T03:04:22.683Z,0
2016-02-20T03:05:22.701Z,0
2016-02-20T03:06:22.703Z,0
2016-02-20T03:07:22.723Z,0
2016-02-20T03:08:22.022Z,0
2016-02-20T03:09:22.744Z,0
2016-02-20T03:10:22.855Z,0
2016-02-20T03:11:22.780Z,0
2016-02-20T03:12:22.783Z,0
2016-02-20T03:13:22.816Z,0
2016-02-20T03:14:22.836Z,0
2016-02-20T03:15:23.243Z,0
2016-02-20T03:16:22.841Z,0
2016-02-20T03:17:22.874Z,0
2016-02-20T03:18:22.877Z,0
2016-02-20T03:19:22.941Z,0
2016-02-20T03:20:22.929Z,0
2016-02-20T03:21:22.947Z,0
2016-02-20T03:22:22.949Z,0
2016-02-20T03:23:22.968Z,0
2016-02-20T03:24:22.988Z,0
2016-02-20T03:25:22.990Z,0
2016-02-20T03:26:23.008Z,0
2016-02-20T03:27:23.043Z,0
2016-02-20T03:28:23.045Z,0
2016-02-20T03:29:23.062Z,0
2016-02-20T03:30:23.519Z,0
2016-02-20T03:31:23.083Z,0
2016-02-20T03:32:23.101Z,0
2016-02-20T03:33:23.120Z,0
2016-02-20T03:34:23.154Z,0
2016-02-20T03:35:23.142Z,0
2016-02-20T03:36:23.160Z,0
2016-02-20T03:37:23.209Z,0
2016-02-20T03:38:23.212Z,0
2016-02-20T03:39:23.199Z,0
2016-02-20T03:40:23.234Z,0
2016-02-20T03:41:23.236Z,0
2016-02-20T03:42:23.254Z,0
2016-02-20T03:43:23.272Z,0
2016-02-20T03:44:23.275Z,0
2016-02-20T03:45:23.309Z,0
2016-02-20T03:46:23.327Z,0
2016-02-20T03:47:23.330Z,0
2016-02-20T03:48:23.349Z,0
2016-02-20T03:49:23.367Z,0
2016-02-20T03:50:23.385Z,0
2016-02-20T03:51:23.402Z,0
2016-02-20T03:52:23.406Z,0
2016-02-20T03:53:23.455Z,0
2016-02-20T03:54:23.474Z,0
2016-02-20T03:55:23.446Z,0
2016-02-20T03:56:23.463Z,0
2016-02-20T03:57:23.498Z,0
2016-02-20T03:58:23.484Z,0
2016-02-20T03:59:23.503Z,0
2016-02-20T04:00:23.521Z,0
2016-02-20T04:01:23.540Z,0
2016-02-20T04:02:23.558Z,0
2016-02-20T04:03:23.576Z,0
2016-02-20T04:04:23.610Z,0
2016-02-20T04:05:23.612Z,0
2016-02-20T04:06:23.647Z,0
2016-02-20T04:07:23.650Z,0
2016-02-20T04:08:23.653Z,0
2016-02-20T04:09:23.671Z,0
2016-02-20T04:10:23.673Z,0
2016-02-20T04:11:23.754Z,0
2016-02-20T04:12:23.741Z,0
2016-02-20T04:13:23.728Z,0
2016-02-20T04:14:23.747Z,0
2016-02-20T04:15:23.749Z,0
2016-02-20T04:16:23.783Z,0
2016-02-20T04:17:23.786Z,0
2016-02-20T04:18:23.789Z,0
2016-02-20T04:19:23.807Z,0
2016-02-20T04:20:23.825Z,0
2016-02-20T04:21:23.859Z,0
2016-02-20T04:22:23.861Z,0
2016-02-20T04:23:23.880Z,0
2016-02-20T04:24:23.883Z,0
2016-02-20T04:25:23.901Z,0
2016-02-20T04:26:23.919Z,0
2016-02-20T04:27:23.937Z,0
2016-02-20T04:28:23.941Z,0
2016-02-20T04:29:23.974Z,0
2016-02-20T04:30:23.993Z,0
2016-02-20T04:31:23.995Z,0
2016-02-20T04:32:24.013Z,0
2016-02-20T04:33:24.063Z,0
2016-02-20T04:34:24.051Z,0
2016-02-20T04:35:24.053Z,0
2016-02-20T04:36:24.056Z,0
2016-02-20T04:37:24.089Z,0
2016-02-20T04:38:24.093Z,0
2016-02-20T04:39:24.095Z,0
2016-02-20T04:40:24.129Z,0
2016-02-20T04:41:24.132Z,0
2016-02-20T04:42:24.165Z,0
2016-02-20T04:43:24.184Z,0
2016-02-20T04:44:24.187Z,0
2016-02-20T04:45:24.221Z,0
2016-02-20T04:46:24.208Z,0
2016-02-20T04:47:24.225Z,0
2016-02-20T04:48:24.245Z,0
2016-02-20T04:49:24.247Z,0
2016-02-20T04:50:24.266Z,0
2016-02-20T04:51:24.300Z,0
2016-02-20T04:52:24.333Z,0
2016-02-20T04:53:24.336Z,0
2016-02-20T04:54:24.338Z,0
2016-02-20T04:55:24.357Z,0
2016-02-20T04:56:24.375Z,0
2016-02-20T04:57:24.378Z,0
2016-02-20T04:58:24.396Z,0
2016-02-20T04:59:24.415Z,0
2016-02-20T05:00:24.433Z,0
2016-02-20T05:01:24.467Z,0
2016-02-20T05:02:24.469Z,0
2016-02-20T05:03:24.472Z,0
2016-02-20T05:04:24.491Z,0
2016-02-20T05:05:24.493Z,0
2016-02-20T05:06:24.512Z,0
2016-02-20T05:07:24.529Z,0
2016-02-20T05:08:24.548Z,0
2016-02-20T05:09:24.581Z,0
2016-02-20T05:10:24.584Z,0
2016-02-20T05:11:24.604Z,0
2016-02-20T05:12:24.606Z,0
2016-02-20T05:13:24.623Z,0
2016-02-20T05:14:24.627Z,0
2016-02-20T05:15:24.645Z,0
2016-02-20T05:16:24.679Z,0
2016-02-20T05:17:24.666Z,0
2016-02-20T05:18:24.700Z,0
2016-02-20T05:19:24.719Z,0
2016-02-20T05:20:24.721Z,0
2016-02-20T05:21:24.740Z,0
2016-02-20T05:22:24.758Z,0
2016-02-20T05:23:24.791Z,0
2016-02-20T05:24:24.795Z,0
2016-02-20T05:25:24.797Z,0
2016-02-20T05:26:24.816Z,0
2016-02-20T05:27:24.833Z,0
2016-02-20T05:28:24.836Z,0
2016-02-20T05:29:24.699Z,0
2016-02-20T05:30:24.873Z,0
2016-02-20T05:31:24.907Z,0
2016-02-20T05:32:24.910Z,0
2016-02-20T05:33:24.912Z,0
2016-02-20T05:34:24.930Z,0
2016-02-20T05:35:24.949Z,0
2016-02-20T05:36:24.951Z,0
2016-02-20T05:37:24.985Z,0
2016-02-20T05:38:25.004Z,0
2016-02-20T05:39:25.023Z,0
2016-02-20T05:40:25.009Z,0
2016-02-20T05:41:25.028Z,0
2016-02-20T05:42:24.296Z,0
2016-02-20T05:43:25.064Z,0
2016-02-20T05:44:25.082Z,0
2016-02-20T05:45:25.101Z,0
2016-02-20T05:46:25.103Z,0
2016-02-20T05:47:25.122Z,0
2016-02-20T05:48:25.139Z,0
2016-02-20T05:49:25.159Z,0
2016-02-20T05:50:25.161Z,0
2016-02-20T05:51:25.180Z,0
2016-02-20T05:52:25.214Z,0
2016-02-20T05:53:25.231Z,0
2016-02-20T05:54:25.234Z,0
2016-02-20T05:55:25.237Z,0
2016-02-20T05:56:25.256Z,0
2016-02-20T05:57:25.274Z,4
2016-02-20T05:58:25.291Z,4
2016-02-20T05:59:25.326Z,0
2016-02-20T06:00:25.313Z,0
2016-02-20T06:01:25.362Z,4
2016-02-20T06:02:25.350Z,4
2016-02-20T06:03:25.368Z,4
2016-02-20T06:04:25.215Z,4
2016-02-20T06:05:25.404Z,4
2016-02-20T06:06:25.407Z,4
2016-02-20T06:07:25.410Z,4
2016-02-20T06:08:25.428Z,4
2016-02-20T06:09:25.446Z,8
2016-02-20T06:10:25.481Z,8
2016-02-20T06:11:25.467Z,8
2016-02-20T06:12:25.330Z,12
2016-02-20T06:13:25.348Z,16
2016-02-20T06:14:25.538Z,12
2016-02-20T06:15:25.540Z,16
2016-02-20T06:16:25.559Z,20
2016-02-20T06:17:25.562Z,20
2016-02-20T06:18:25.580Z,24
2016-02-20T06:19:25.598Z,28
2016-02-20T06:20:25.633Z,28
2016-02-20T06:21:25.619Z,32
2016-02-20T06:22:25.638Z,32
2016-02-20T06:23:25.641Z,36
2016-02-20T06:24:25.675Z,36
2016-02-20T06:25:25.677Z,36
2016-02-20T06:26:25.695Z,40
2016-02-20T06:27:25.714Z,40
2016-02-20T06:28:25.732Z,44
2016-02-20T06:29:25.750Z,48
2016-02-20T06:30:25.769Z,48
2016-02-20T06:31:25.772Z,56
2016-02-20T06:32:25.790Z,56
2016-02-20T06:33:25.793Z,56
2016-02-20T06:34:25.826Z,56
2016-02-20T06:35:25.829Z,60
2016-02-20T06:36:25.862Z,64
2016-02-20T06:37:25.866Z,64
2016-02-20T06:38:25.884Z,68
2016-02-20T06:39:25.902Z,68
2016-02-20T06:40:25.904Z,72
2016-02-20T06:41:25.907Z,80
2016-02-20T06:42:25.942Z,84
2016-02-20T06:43:25.945Z,88
2016-02-20T06:44:25.963Z,88
2016-02-20T06:45:25.981Z,92
2016-02-20T06:46:25.983Z,96
2016-02-20T06:47:26.001Z,100
2016-02-20T06:48:26.020Z,108
2016-02-20T06:49:26.039Z,112
2016-02-20T06:50:26.056Z,116
2016-02-20T06:51:26.059Z,120
2016-02-20T06:52:26.109Z,124
2016-02-20T06:53:26.111Z,128
2016-02-20T06:54:26.115Z,136
2016-02-20T06:55:26.117Z,140
2016-02-20T06:56:25.401Z,148
2016-02-20T06:57:26.153Z,160
2016-02-20T06:58:26.172Z,164
2016-02-20T06:59:26.175Z,168
2016-02-20T07:00:26.193Z,176
2016-02-20T07:01:26.227Z,188
2016-02-20T07:02:26.230Z,200
2016-02-20T07:03:26.232Z,208
2016-02-20T07:04:26.251Z,212
2016-02-20T07:05:26.269Z,212
2016-02-20T07:06:26.271Z,228
2016-02-20T07:07:26.290Z,248
2016-02-20T07:08:26.323Z,260
2016-02-20T07:09:26.343Z,264
2016-02-20T07:10:26.345Z,256
2016-02-20T07:11:26.362Z,268
2016-02-20T07:12:26.366Z,284
2016-02-20T07:13:26.384Z,308
2016-02-20T07:14:26.403Z,316
2016-02-20T07:15:26.437Z,320
2016-02-20T07:16:26.439Z,324
2016-02-20T07:17:26.442Z,316
2016-02-20T07:18:26.459Z,312
2016-02-20T07:19:26.479Z,324
2016-02-20T07:20:26.497Z,324
2016-02-20T07:21:26.514Z,320
2016-02-20T07:22:26.533Z,320
2016-02-20T07:23:26.536Z,344
2016-02-20T07:24:26.555Z,388
2016-02-20T07:25:26.573Z,440
2016-02-20T07:26:26.575Z,468
2016-02-20T07:27:26.594Z,456
2016-02-20T07:28:26.690Z,448
2016-02-20T07:29:26.615Z,396
2016-02-20T07:30:26.664Z,348
2016-02-20T07:31:26.776Z,364
2016-02-20T07:32:26.716Z,440
2016-02-20T07:33:26.688Z,512
2016-02-20T07:34:26.691Z,484
2016-02-20T07:35:26.709Z,464
2016-02-20T07:36:26.728Z,448
2016-02-20T07:37:26.746Z,424
2016-02-20T07:38:26.763Z,432
2016-02-20T07:39:26.766Z,468
2016-02-20T07:40:26.785Z,512
2016-02-20T07:41:26.787Z,548
2016-02-20T07:42:26.806Z,556
2016-02-20T07:43:26.824Z,536
2016-02-20T07:44:26.859Z,528
2016-02-20T07:45:26.861Z,532
2016-02-20T07:46:26.879Z,548
2016-02-20T07:47:26.898Z,580
2016-02-20T07:48:26.915Z,620
2016-02-20T07:49:26.918Z,656
2016-02-20T07:50:26.921Z,672
2016-02-20T07:51:26.955Z,624
2016-02-20T07:52:26.958Z,576
2016-02-20T07:53:26.991Z,572
2016-02-20T07:54:27.011Z,596
2016-02-20T07:55:27.013Z,628
2016-02-20T07:56:27.016Z,648
2016-02-20T07:57:27.034Z,648
2016-02-20T07:58:27.052Z,636
2016-02-20T07:59:27.055Z,632
2016-02-20T08:00:27.104Z,636
2016-02-20T08:01:27.091Z,652
2016-02-20T08:02:27.125Z,668
2016-02-20T08:03:27.112Z,672
2016-02-20T08:04:26.991Z,676
2016-02-20T08:05:27.165Z,696
2016-02-20T08:06:27.168Z,712
2016-02-20T08:07:27.171Z,712
2016-02-20T08:08:27.204Z,696
2016-02-20T08:09:27.237Z,676
2016-02-20T08:10:27.241Z,644
2016-02-20T08:11:27.243Z,608
2016-02-20T08:12:27.262Z,576
2016-02-20T08:13:27.279Z,540
2016-02-20T08:14:27.282Z,528
2016-02-20T08:15:27.317Z,528
2016-02-20T08:16:27.334Z,540
2016-02-20T08:17:27.323Z,552
2016-02-20T08:18:27.356Z,556
2016-02-20T08:19:27.217Z,556
2016-02-20T08:20:27.392Z,552
2016-02-20T08:21:27.411Z,552
2016-02-20T08:22:27.414Z,560
2016-02-20T08:23:27.416Z,592
2016-02-20T08:24:27.434Z,640
2016-02-20T08:25:27.453Z,684
2016-02-20T08:26:27.471Z,724
2016-02-20T08:27:27.490Z,760
2016-02-20T08:28:27.508Z,820
2016-02-20T08:29:27.525Z,884
2016-02-20T08:30:27.528Z,912
2016-02-20T08:31:27.547Z,908
2016-02-20T08:32:27.566Z,888
2016-02-20T08:33:27.568Z,860
2016-02-20T08:34:27.586Z,848
2016-02-20T08:35:27.605Z,844
2016-02-20T08:36:27.623Z,840
2016-02-20T08:37:27.627Z,844
2016-02-20T08:38:27.658Z,856
2016-02-20T08:39:27.665Z,852
2016-02-20T08:40:27.673Z,864
2016-02-20T08:41:27.664Z,868
2016-02-20T08:42:27.671Z,852
2016-02-20T08:43:27.679Z,836
2016-02-20T08:44:27.693Z,832
2016-02-20T08:45:27.708Z,852
2016-02-20T08:46:27.706Z,872
2016-02-20T08:47:27.719Z,892
2016-02-20T08:48:27.734Z,912
2016-02-20T08:49:27.736Z,904
2016-02-20T08:50:27.752Z,892
2016-02-20T08:51:27.753Z,872
2016-02-20T08:52:27.786Z,836
2016-02-20T08:53:27.788Z,784
2016-02-20T08:54:27.821Z,732
2016-02-20T08:55:27.839Z,664
2016-02-20T08:56:27.842Z,608
2016-02-20T08:57:27.859Z,584
2016-02-20T08:58:27.877Z,580
2016-02-20T08:59:27.880Z,600
2016-02-20T09:00:27.913Z,656
2016-02-20T09:01:27.915Z,712
2016-02-20T09:02:27.934Z,748
2016-02-20T09:03:27.936Z,772
2016-02-20T09:04:27.970Z,784
2016-02-20T09:05:27.988Z,812
2016-02-20T09:06:28.006Z,820
2016-02-20T09:07:28.009Z,772
2016-02-20T09:08:28.028Z,732
2016-02-20T09:09:28.030Z,692
2016-02-20T09:10:28.048Z,632
2016-02-20T09:11:28.067Z,588
2016-02-20T09:12:28.116Z,556
2016-02-20T09:13:28.118Z,544
2016-02-20T09:14:28.122Z,552
2016-02-20T09:15:28.140Z,564
2016-02-20T09:16:28.143Z,572
2016-02-20T09:17:28.160Z,556
2016-02-20T09:18:28.194Z,544
2016-02-20T09:19:28.197Z,544
2016-02-20T09:20:28.215Z,572
2016-02-20T09:21:28.234Z,584
2016-02-20T09:22:28.252Z,604
2016-02-20T09:23:28.254Z,624
2016-02-20T09:24:28.274Z,628
2016-02-20T09:25:28.292Z,616
2016-02-20T09:26:28.294Z,632
2016-02-20T09:27:28.329Z,624
2016-02-20T09:28:28.190Z,608
2016-02-20T09:29:28.365Z,588
2016-02-20T09:30:28.368Z,556
2016-02-20T09:31:28.386Z,536
2016-02-20T09:32:28.389Z,460
2016-02-20T09:33:28.422Z,432
2016-02-20T09:34:28.441Z,428
2016-02-20T09:35:28.459Z,436
2016-02-20T09:36:28.462Z,456
2016-02-20T09:37:28.480Z,488
2016-02-20T09:38:28.498Z,512
2016-02-20T09:39:28.517Z,548
2016-02-20T09:40:28.519Z,580
2016-02-20T09:41:28.538Z,592
2016-02-20T09:42:28.556Z,572
2016-02-20T09:43:28.590Z,572
2016-02-20T09:44:28.593Z,588
2016-02-20T09:45:28.611Z,592
2016-02-20T09:46:28.613Z,624
2016-02-20T09:47:28.476Z,668
2016-02-20T09:48:28.666Z,664
2016-02-20T09:49:28.668Z,672
2016-02-20T09:50:28.687Z,664
2016-02-20T09:51:28.705Z,644
2016-02-20T09:52:28.708Z,652
2016-02-20T09:53:28.726Z,676
2016-02-20T09:54:28.745Z,708
2016-02-20T09:55:28.013Z,712
2016-02-20T09:56:28.796Z,684
2016-02-20T09:57:28.799Z,652
2016-02-20T09:58:28.818Z,632
2016-02-20T09:59:28.820Z,636
2016-02-20T10:00:28.840Z,612
2016-02-20T10:01:28.857Z,576
2016-02-20T10:02:28.892Z,568
2016-02-20T10:03:28.895Z,560
2016-02-20T10:04:28.912Z,548
2016-02-20T10:05:28.915Z,524
2016-02-20T10:06:28.933Z,500
2016-02-20T10:07:28.951Z,500
2016-02-20T10:08:28.969Z,500
2016-02-20T10:09:28.989Z,472
2016-02-20T10:10:29.006Z,480
2016-02-20T10:11:29.056Z,468
2016-02-20T10:12:29.028Z,484
2016-02-20T10:13:29.061Z,492
2016-02-20T10:14:29.064Z,488
2016-02-20T10:15:29.082Z,488
2016-02-20T10:16:29.100Z,492
2016-02-20T10:17:29.119Z,516
2016-02-20T10:18:29.138Z,516
2016-02-20T10:19:29.141Z,536
2016-02-20T10:20:29.174Z,584
2016-02-20T10:21:29.176Z,604
2016-02-20T10:22:29.211Z,640
2016-02-20T10:23:29.260Z,652
2016-02-20T10:24:29.231Z,652
2016-02-20T10:25:29.249Z,728
2016-02-20T10:26:29.252Z,748
2016-02-20T10:27:29.271Z,776
2016-02-20T10:28:29.305Z,720
2016-02-20T10:29:29.323Z,680
2016-02-20T10:30:29.326Z,656
2016-02-20T10:31:29.345Z,628
2016-02-20T10:32:29.378Z,600
2016-02-20T10:33:29.381Z,664
2016-02-20T10:34:29.383Z,680
2016-02-20T10:35:29.401Z,748
2016-02-20T10:36:29.420Z,768
2016-02-20T10:37:29.439Z,768
2016-02-20T10:38:29.456Z,800
2016-02-20T10:39:29.475Z,728
2016-02-20T10:40:29.494Z,696
2016-02-20T10:41:29.512Z,844
2016-02-20T10:42:29.514Z,772
2016-02-20T10:43:29.533Z,740
2016-02-20T10:44:29.536Z,768
2016-02-20T10:45:29.569Z,788
2016-02-20T10:46:29.588Z,804
2016-02-20T10:47:29.606Z,720
2016-02-20T10:48:29.624Z,784
2016-02-20T10:49:29.627Z,808
2016-02-20T10:50:29.646Z,756
2016-02-20T10:51:29.507Z,688
2016-02-20T10:52:29.682Z,676
2016-02-20T10:53:29.699Z,660
2016-02-20T10:54:29.718Z,624
2016-02-20T10:55:29.768Z,660
2016-02-20T10:56:29.771Z,704
2016-02-20T10:57:29.774Z,668
2016-02-20T10:58:29.792Z,612
2016-02-20T10:59:29.809Z,616
2016-02-20T11:00:29.812Z,688
2016-02-20T11:01:29.831Z,636
2016-02-20T11:02:29.865Z,648
2016-02-20T11:03:29.868Z,648
2016-02-20T11:04:29.871Z,632
2016-02-20T11:05:29.889Z,620
2016-02-20T11:06:29.923Z,628
2016-02-20T11:07:29.941Z,604
2016-02-20T11:08:29.928Z,648
2016-02-20T11:09:30.243Z,700
2016-02-20T11:10:30.339Z,704
2016-02-20T11:11:29.995Z,652
2016-02-20T11:12:29.999Z,624
2016-02-20T11:13:30.017Z,628
2016-02-20T11:14:29.864Z,644
2016-02-20T11:15:30.039Z,712
2016-02-20T11:16:30.072Z,852
2016-02-20T11:17:30.106Z,728
2016-02-20T11:18:30.094Z,676
2016-02-20T11:19:30.111Z,676
2016-02-20T11:20:30.145Z,764
2016-02-20T11:21:30.164Z,712
2016-02-20T11:22:30.182Z,764
2016-02-20T11:23:30.185Z,688
2016-02-20T11:24:30.203Z,648
2016-02-20T11:25:30.237Z,656
2016-02-20T11:26:30.224Z,680
2016-02-20T11:27:30.258Z,732
2016-02-20T11:28:30.276Z,684
2016-02-20T11:29:30.310Z,620
2016-02-20T11:30:30.344Z,628
2016-02-20T11:31:30.316Z,660
2016-02-20T11:32:30.349Z,644
2016-02-20T11:33:30.352Z,640
2016-02-20T11:34:30.371Z,640
2016-02-20T11:35:30.389Z,608
2016-02-20T11:36:30.391Z,588
2016-02-20T11:37:30.425Z,580
2016-02-20T11:38:30.428Z,596
2016-02-20T11:39:30.446Z,592
2016-02-20T11:40:30.481Z,560
2016-02-20T11:41:30.484Z,660
2016-02-20T11:42:30.501Z,672
2016-02-20T11:43:30.504Z,656
2016-02-20T11:44:30.539Z,684
2016-02-20T11:45:30.541Z,732
2016-02-20T11:46:30.574Z,744
2016-02-20T11:47:30.608Z,764
2016-02-20T11:48:30.580Z,676
2016-02-20T11:49:30.630Z,728
2016-02-20T11:50:30.633Z,708
2016-02-20T11:51:30.650Z,708
2016-02-20T11:52:30.700Z,672
2016-02-20T11:53:30.688Z,712
2016-02-20T11:54:30.721Z,756
2016-02-20T11:55:30.724Z,728
2016-02-20T11:56:30.726Z,696
2016-02-20T11:57:30.729Z,752
2016-02-20T11:58:30.779Z,836
2016-02-20T11:59:30.765Z,844
2016-02-20T12:00:30.846Z,908
2016-02-20T12:01:30.802Z,864
2016-02-20T12:02:30.837Z,840
2016-02-20T12:03:30.839Z,836
2016-02-20T12:04:30.857Z,788
2016-02-20T12:05:30.891Z,804
2016-02-20T12:06:30.879Z,776
2016-02-20T12:07:30.913Z,716
2016-02-20T12:08:30.915Z,708
2016-02-20T12:09:30.949Z,684
2016-02-20T12:10:30.984Z,744
2016-02-20T12:11:30.986Z,732
2016-02-20T12:12:30.988Z,712
2016-02-20T12:13:30.991Z,720
2016-02-20T12:14:31.025Z,768
2016-02-20T12:15:31.028Z,720
2016-02-20T12:16:31.061Z,604
2016-02-20T12:17:31.081Z,592
2016-02-20T12:18:31.097Z,608
2016-02-20T12:19:31.117Z,572
2016-02-20T12:20:31.135Z,488
2016-02-20T12:21:31.137Z,492
2016-02-20T12:22:31.171Z,476
2016-02-20T12:23:31.189Z,496
2016-02-20T12:24:31.177Z,448
2016-02-20T12:25:31.211Z,476
2016-02-20T12:26:31.230Z,416
2016-02-20T12:27:30.497Z,408
2016-02-20T12:28:31.110Z,444
2016-02-20T12:29:31.268Z,484
2016-02-20T12:30:31.287Z,444
2016-02-20T12:31:31.304Z,432
2016-02-20T12:32:31.370Z,468
2016-02-20T12:33:30.591Z,484
2016-02-20T12:34:31.360Z,532
2016-02-20T12:35:31.394Z,564
2016-02-20T12:36:31.382Z,552
2016-02-20T12:37:31.431Z,532
2016-02-20T12:38:31.418Z,520
2016-02-20T12:39:31.437Z,588
2016-02-20T12:40:31.454Z,692
2016-02-20T12:41:31.473Z,580
2016-02-20T12:42:31.490Z,552
2016-02-20T12:43:31.337Z,560
2016-02-20T12:44:31.512Z,600
2016-02-20T12:45:31.578Z,700
2016-02-20T12:46:31.564Z,772
2016-02-20T12:47:31.583Z,692
2016-02-20T12:48:31.631Z,696
2016-02-20T12:49:31.603Z,732
2016-02-20T12:50:31.622Z,736
2016-02-20T12:51:31.656Z,680
2016-02-20T12:52:31.674Z,800
2016-02-20T12:53:31.661Z,824
2016-02-20T12:54:31.695Z,784
2016-02-20T12:55:31.729Z,760
2016-02-20T12:56:31.732Z,740
2016-02-20T12:57:31.766Z,692
2016-02-20T12:58:31.753Z,708
2016-02-20T12:59:31.771Z,668
2016-02-20T13:00:31.804Z,768
2016-02-20T13:01:31.824Z,668
2016-02-20T13:02:31.841Z,680
2016-02-20T13:03:31.860Z,592
2016-02-20T13:04:31.879Z,660
2016-02-20T13:05:31.865Z,652
2016-02-20T13:06:31.884Z,584
2016-02-20T13:07:31.902Z,624
2016-02-20T13:08:31.920Z,588
2016-02-20T13:09:31.954Z,640
2016-02-20T13:10:31.957Z,568
2016-02-20T13:11:31.959Z,576
2016-02-20T13:12:32.025Z,516
2016-02-20T13:13:31.995Z,544
2016-02-20T13:14:32.030Z,524
2016-02-20T13:15:32.033Z,544
2016-02-20T13:16:32.051Z,552
2016-02-20T13:17:32.085Z,572
2016-02-20T13:18:32.087Z,600
2016-02-20T13:19:32.106Z,620
2016-02-20T13:20:32.109Z,600
2016-02-20T13:21:32.143Z,664
2016-02-20T13:22:32.161Z,696
2016-02-20T13:23:32.179Z,760
2016-02-20T13:24:32.214Z,804
2016-02-20T13:25:32.186Z,756
2016-02-20T13:26:32.219Z,760
2016-02-20T13:27:32.253Z,800
2016-02-20T13:28:32.256Z,636
2016-02-20T13:29:32.274Z,580
2016-02-20T13:30:32.277Z,520
2016-02-20T13:31:32.311Z,532
2016-02-20T13:32:32.313Z,472
2016-02-20T13:33:32.332Z,468
2016-02-20T13:34:32.381Z,468
2016-02-20T13:35:32.368Z,468
2016-02-20T13:36:32.418Z,456
2016-02-20T13:37:32.405Z,404
2016-02-20T13:38:32.439Z,396
2016-02-20T13:39:32.426Z,384
2016-02-20T13:40:32.460Z,392
2016-02-20T13:41:32.479Z,420
2016-02-20T13:42:32.482Z,460
2016-02-20T13:43:32.515Z,396
2016-02-20T13:44:32.518Z,356
2016-02-20T13:45:32.552Z,344
2016-02-20T13:46:32.555Z,332
2016-02-20T13:47:32.573Z,336
2016-02-20T13:48:32.607Z,352
2016-02-20T13:49:32.594Z,324
2016-02-20T13:50:32.628Z,320
2016-02-20T13:51:32.631Z,312
2016-02-20T13:52:32.649Z,336
2016-02-20T13:53:32.698Z,324
2016-02-20T13:54:32.685Z,348
2016-02-20T13:55:32.704Z,332
2016-02-20T13:56:32.723Z,300
2016-02-20T13:57:32.725Z,300
2016-02-20T13:58:32.790Z,304
2016-02-20T13:59:32.793Z,348
2016-02-20T14:00:32.795Z,308
2016-02-20T14:01:32.798Z,356
2016-02-20T14:02:32.831Z,356
2016-02-20T14:03:32.850Z,356
2016-02-20T14:04:32.697Z,320
2016-02-20T14:05:32.887Z,400
2016-02-20T14:06:32.890Z,388
2016-02-20T14:07:32.908Z,372
2016-02-20T14:08:32.927Z,304
2016-02-20T14:09:32.961Z,288
2016-02-20T14:10:32.963Z,308
2016-02-20T14:11:32.981Z,312
2016-02-20T14:12:33.016Z,292